Time;durP1;ratioP1;P1;durP2;ratioP2;P2;SDS_P1;SDS_P2;PMS_P1;PMS_P2;Temp;Humidity;BMP_temperature;BMP_pressure;BME280_temperature;BME280_humidity;BME280_pressure;Samples;Min_cycle;Max_cycle;Signal;HPM_P1;HPM_P2
2023/08/17 00:01:31;;;;;;;4.53;1.33;;;16.50;99.90;;;;;;5057911;28;20070;-86
2023/08/17 00:03:58;;;;;;;3.45;1.40;;;16.50;99.90;;;;;;5058369;28;20074;-86
2023/08/17 00:06:25;;;;;;;4.78;1.48;;;16.50;99.90;;;;;;5074098;28;20043;-87
2023/08/17 00:08:52;;;;;;;5.63;1.48;;;16.50;99.90;;;;;;5058317;28;20577;-86
2023/08/17 00:11:19;;;;;;;7.57;1.38;;;16.50;99.90;;;;;;5057776;28;20130;-86
2023/08/17 00:13:45;;;;;;;3.75;1.30;;;16.50;99.90;;;;;;5058268;28;20052;-87
2023/08/17 00:16:12;;;;;;;6.28;1.45;;;16.40;99.90;;;;;;5074441;28;20044;-86
2023/08/17 00:18:39;;;;;;;6.32;1.50;;;16.50;99.90;;;;;;5090180;28;20067;-86
2023/08/17 00:21:06;;;;;;;4.15;1.20;;;16.40;99.90;;;;;;5074097;28;20174;-87
2023/08/17 00:23:32;;;;;;;4.65;1.30;;;16.40;99.90;;;;;;5074485;28;20069;-87
2023/08/17 00:25:59;;;;;;;5.25;1.67;;;16.40;99.90;;;;;;5057551;28;20039;-86
2023/08/17 00:28:26;;;;;;;5.38;1.30;;;16.40;99.90;;;;;;5073932;28;20443;-87
2023/08/17 00:30:53;;;;;;;3.25;1.20;;;16.50;99.90;;;;;;5074522;28;20036;-87
2023/08/17 00:33:20;;;;;;;6.40;1.63;;;16.40;99.90;;;;;;5074296;28;20048;-87
2023/08/17 00:35:47;;;;;;;5.03;1.40;;;16.40;99.90;;;;;;5073405;28;20051;-87
2023/08/17 00:38:13;;;;;;;5.60;1.38;;;16.40;99.90;;;;;;5057499;28;20094;-86
2023/08/17 00:40:40;;;;;;;3.63;1.40;;;16.40;99.90;;;;;;5057087;28;20079;-86
2023/08/17 00:43:07;;;;;;;3.78;1.50;;;16.40;99.90;;;;;;5073828;28;20047;-87
2023/08/17 00:45:34;;;;;;;6.57;1.42;;;16.40;99.90;;;;;;5057051;28;20040;-87
2023/08/17 00:48:01;;;;;;;3.47;1.30;;;16.10;99.90;;;;;;5057768;28;20075;-87
2023/08/17 00:50:29;;;;;;;3.95;1.23;;;16.30;99.90;;;;;;5073344;28;20040;-86
2023/08/17 00:52:57;;;;;;;4.45;1.20;;;16.30;99.90;;;;;;5089948;28;20102;-86
2023/08/17 00:55:24;;;;;;;3.90;1.30;;;16.30;99.90;;;;;;5107018;28;20044;-87
2023/08/17 00:57:52;;;;;;;3.35;1.38;;;16.30;99.90;;;;;;5073702;28;20040;-86
2023/08/17 01:00:20;;;;;;;4.43;1.30;;;16.30;99.90;;;;;;5090375;28;20123;-87
2023/08/17 01:02:47;;;;;;;3.65;1.30;;;16.30;99.90;;;;;;5089711;28;20493;-87
2023/08/17 01:05:13;;;;;;;7.60;1.92;;;16.30;99.90;;;;;;5056850;28;20101;-87
2023/08/17 01:07:40;;;;;;;3.90;1.30;;;16.30;99.90;;;;;;5089821;28;20501;-87
2023/08/17 01:10:08;;;;;;;4.10;1.55;;;16.30;99.90;;;;;;5073644;28;20045;-87
2023/08/17 01:12:46;;;;;;;5.15;1.40;;;16.30;99.90;;;;;;5073280;28;20177;-87
2023/08/17 01:15:20;;;;;;;3.28;1.23;;;16.30;99.90;;;;;;5106664;28;20412;-86
2023/08/17 01:18:07;;;;;;;8.25;1.50;;;16.30;99.90;;;;;;5089625;28;20048;-87
2023/08/17 01:20:35;;;;;;;6.95;2.00;;;16.30;99.90;;;;;;5105958;28;20512;-87
2023/08/17 01:23:06;;;;;;;2.20;1.20;;;16.30;99.90;;;;;;5056808;28;20043;-87
2023/08/17 01:25:36;;;;;;;6.57;1.80;;;16.30;99.90;;;;;;5072896;28;20477;-86
2023/08/17 01:28:04;;;;;;;4.10;1.20;;;16.30;99.90;;;;;;5073807;28;20037;-87
2023/08/17 01:30:44;;;;;;;5.82;1.55;;;16.30;99.90;;;;;;5089580;28;20080;-86
2023/08/17 01:33:13;;;;;;;3.70;1.38;;;16.30;99.90;;;;;;5089968;28;20127;-86
2023/08/17 01:36:05;;;;;;;5.60;1.50;;;16.30;99.90;;;;;;5089669;28;20135;-86
2023/08/17 01:38:34;;;;;;;5.60;1.45;;;16.30;99.90;;;;;;5089241;28;20048;-87
2023/08/17 01:41:02;;;;;;;7.15;1.52;;;16.30;99.90;;;;;;5089409;28;20044;-86
2023/08/17 01:43:29;;;;;;;6.78;1.52;;;16.30;99.90;;;;;;5073054;28;20106;-87
2023/08/17 01:45:56;;;;;;;6.45;1.77;;;16.30;99.90;;;;;;5072739;28;20074;-87
2023/08/17 01:48:22;;;;;;;5.85;1.58;;;16.30;99.90;;;;;;5073038;28;20548;-86
2023/08/17 01:50:49;;;;;;;3.15;1.38;;;16.30;99.90;;;;;;5056480;28;20127;-87
2023/08/17 01:53:16;;;;;;;5.25;1.38;;;16.30;99.90;;;;;;5056693;28;20045;-87
2023/08/17 01:55:42;;;;;;;3.65;1.70;;;16.30;99.90;;;;;;5056919;28;20045;-86
2023/08/17 01:58:09;;;;;;;6.10;1.50;;;16.30;99.90;;;;;;5089630;28;20047;-86
2023/08/17 02:00:36;;;;;;;4.72;1.60;;;16.30;99.90;;;;;;5056374;28;20393;-86
2023/08/17 02:03:03;;;;;;;4.88;1.38;;;16.40;99.90;;;;;;5059574;28;20033;-87
2023/08/17 02:05:29;;;;;;;7.32;1.58;;;16.40;99.90;;;;;;5076869;28;20135;-87
2023/08/17 02:07:56;;;;;;;2.55;1.30;;;16.40;99.90;;;;;;5060263;28;20063;-87
2023/08/17 02:10:23;;;;;;;4.07;1.50;;;16.40;99.90;;;;;;5060188;28;20067;-86
2023/08/17 02:12:50;;;;;;;4.30;1.42;;;16.30;99.90;;;;;;5060034;28;20100;-87
2023/08/17 02:15:17;;;;;;;6.07;1.48;;;16.40;99.90;;;;;;5093426;28;20044;-87
2023/08/17 02:17:43;;;;;;;6.78;1.73;;;16.40;99.90;;;;;;5076876;28;20378;-87
2023/08/17 02:20:11;;;;;;;6.22;1.77;;;16.40;99.90;;;;;;5059635;28;20040;-86
2023/08/17 02:22:37;;;;;;;3.28;1.40;;;16.30;99.90;;;;;;5059696;28;20032;-87
2023/08/17 02:25:05;;;;;;;4.28;1.48;;;16.40;99.90;;;;;;5060077;28;20035;-87
2023/08/17 02:27:31;;;;;;;4.10;1.50;;;16.40;99.90;;;;;;5060170;28;20705;-87
2023/08/17 02:29:58;;;;;;;3.53;1.40;;;16.30;99.90;;;;;;5059897;28;20040;-86
2023/08/17 02:32:25;;;;;;;3.63;1.40;;;16.30;99.90;;;;;;5076241;28;20045;-87
2023/08/17 02:34:51;;;;;;;5.28;1.33;;;16.40;99.90;;;;;;5075979;28;20040;-87
2023/08/17 02:37:18;;;;;;;10.55;1.65;;;16.30;99.90;;;;;;5076477;28;20424;-86
2023/08/17 02:39:48;;;;;;;5.63;1.75;;;16.30;99.90;;;;;;5078460;28;20117;-86
2023/08/17 02:42:15;;;;;;;5.57;2.28;;;16.30;99.90;;;;;;5080229;28;20127;-87
2023/08/17 02:44:41;;;;;;;7.95;2.05;;;16.30;99.90;;;;;;5079038;28;20181;-86
2023/08/17 02:47:08;;;;;;;3.58;1.50;;;16.30;99.90;;;;;;5079387;28;20036;-86
2023/08/17 02:49:35;;;;;;;6.00;1.70;;;16.30;99.90;;;;;;5063133;28;20040;-86
2023/08/17 02:52:02;;;;;;;4.28;1.55;;;16.30;99.90;;;;;;5079398;28;20050;-87
2023/08/17 02:54:28;;;;;;;5.60;1.92;;;16.30;99.90;;;;;;5096045;28;20071;-87
2023/08/17 02:56:55;;;;;;;5.88;2.58;;;16.30;99.90;;;;;;5062956;28;20047;-87
2023/08/17 02:59:22;;;;;;;6.65;1.75;;;16.20;99.90;;;;;;5079557;28;20131;-86
2023/08/17 03:01:49;;;;;;;4.55;1.60;;;16.20;99.90;;;;;;5079018;28;20085;-87
2023/08/17 03:04:16;;;;;;;3.47;1.45;;;16.20;99.90;;;;;;5079074;28;20496;-86
2023/08/17 03:06:42;;;;;;;3.60;1.30;;;16.20;99.90;;;;;;5079153;28;20036;-86
2023/08/17 03:09:10;;;;;;;4.75;1.55;;;16.20;99.90;;;;;;5062976;28;20047;-86
2023/08/17 03:11:36;;;;;;;6.28;1.70;;;16.20;99.90;;;;;;5079108;28;20070;-86
2023/08/17 03:14:03;;;;;;;4.65;1.50;;;16.20;99.90;;;;;;5078719;28;20047;-86
2023/08/17 03:16:30;;;;;;;5.10;1.50;;;16.20;99.90;;;;;;5078847;28;20044;-86
2023/08/17 03:18:57;;;;;;;5.18;1.45;;;16.20;99.90;;;;;;5062366;28;20385;-86
2023/08/17 03:21:23;;;;;;;4.82;1.80;;;16.20;99.90;;;;;;5062579;28;20039;-87
2023/08/17 03:23:50;;;;;;;3.70;1.55;;;16.20;99.90;;;;;;5078456;28;20036;-86
2023/08/17 03:26:17;;;;;;;5.97;1.40;;;16.20;99.90;;;;;;5078735;28;20040;-87
2023/08/17 03:28:48;;;;;;;5.00;1.50;;;16.20;99.90;;;;;;5095077;28;20040;-87
2023/08/17 03:31:14;;;;;;;5.45;1.55;;;16.20;99.90;;;;;;5095605;28;20543;-87
2023/08/17 03:33:41;;;;;;;5.15;1.58;;;16.20;99.90;;;;;;5079093;28;20131;-86
2023/08/17 03:36:08;;;;;;;8.90;1.40;;;16.20;99.90;;;;;;5078408;28;20097;-86
2023/08/17 03:38:34;;;;;;;2.97;1.25;;;16.10;99.90;;;;;;5078688;28;20389;-87
2023/08/17 03:41:01;;;;;;;7.10;1.70;;;16.10;99.90;;;;;;5074703;28;20087;-87
2023/08/17 03:43:28;;;;;;;4.00;1.30;;;16.10;99.90;;;;;;5091811;28;20040;-87
2023/08/17 03:45:54;;;;;;;3.75;1.75;;;16.10;99.90;;;;;;5074753;28;20510;-87
2023/08/17 03:48:22;;;;;;;4.90;1.48;;;16.00;99.90;;;;;;5074831;28;20413;-87
2023/08/17 03:50:54;;;;;;;4.35;1.45;;;15.90;99.90;;;;;;5074646;28;20461;-86
2023/08/17 03:53:21;;;;;;;5.43;1.40;;;16.10;99.90;;;;;;5091376;28;20044;-86
2023/08/17 03:55:49;;;;;;;4.07;1.38;;;16.00;99.90;;;;;;5107592;28;20045;-86
2023/08/17 03:58:17;;;;;;;4.22;1.60;;;16.00;99.90;;;;;;5091330;28;20056;-87
2023/08/17 04:00:51;;;;;;;3.85;1.33;;;16.00;99.90;;;;;;5074615;28;20040;-87
2023/08/17 04:03:18;;;;;;;6.95;1.75;;;16.00;99.90;;;;;;5090646;28;20597;-86
2023/08/17 04:05:45;;;;;;;4.28;1.48;;;16.00;99.90;;;;;;5074457;28;20531;-87
2023/08/17 04:08:12;;;;;;;5.03;1.48;;;16.00;99.90;;;;;;5074286;28;20037;-86
2023/08/17 04:10:39;;;;;;;3.65;1.50;;;16.00;99.90;;;;;;5074025;28;20051;-86
2023/08/17 04:13:06;;;;;;;4.43;1.40;;;16.00;99.90;;;;;;5073636;28;20103;-86
2023/08/17 04:15:32;;;;;;;6.03;2.05;;;15.90;99.90;;;;;;5090251;28;20041;-86
2023/08/17 04:17:59;;;;;;;7.38;1.50;;;15.90;99.90;;;;;;5057250;28;20044;-86
2023/08/17 04:20:27;;;;;;;4.47;1.40;;;15.90;99.90;;;;;;5090478;28;20127;-86
2023/08/17 04:22:53;;;;;;;6.68;1.40;;;15.90;99.90;;;;;;5073272;28;20036;-86
2023/08/17 04:25:20;;;;;;;5.65;1.92;;;15.90;99.90;;;;;;5056677;28;20515;-86
2023/08/17 04:27:47;;;;;;;5.53;1.55;;;15.90;99.90;;;;;;5073892;28;20072;-86
2023/08/17 04:30:13;;;;;;;5.95;1.98;;;15.80;99.90;;;;;;5073542;28;20045;-86
2023/08/17 04:32:40;;;;;;;6.70;1.80;;;15.90;99.90;;;;;;5074086;28;20044;-86
2023/08/17 04:35:07;;;;;;;6.07;1.60;;;15.80;99.90;;;;;;5057687;28;20477;-87
2023/08/17 04:37:34;;;;;;;5.88;1.58;;;15.80;99.90;;;;;;5074307;28;20048;-86
2023/08/17 04:40:01;;;;;;;7.60;1.70;;;15.80;99.90;;;;;;5060342;28;20047;-86
2023/08/17 04:42:28;;;;;;;3.17;1.40;;;15.80;99.90;;;;;;5076964;28;20059;-86
2023/08/17 04:44:54;;;;;;;8.18;1.75;;;15.80;99.90;;;;;;5061362;28;20512;-86
2023/08/17 04:47:21;;;;;;;6.18;1.50;;;15.90;99.90;;;;;;5060806;28;20079;-86
2023/08/17 04:49:47;;;;;;;5.05;1.65;;;15.80;99.90;;;;;;5060665;28;20036;-86
2023/08/17 04:52:14;;;;;;;3.72;1.50;;;15.80;99.90;;;;;;5076762;28;20043;-86
2023/08/17 04:54:41;;;;;;;6.47;1.85;;;15.90;99.90;;;;;;5077239;28;20028;-86
2023/08/17 04:57:07;;;;;;;4.63;1.60;;;15.80;99.90;;;;;;5060207;28;20123;-86
2023/08/17 04:59:34;;;;;;;6.57;1.85;;;15.80;99.90;;;;;;5060606;28;20040;-86
2023/08/17 05:02:01;;;;;;;7.32;1.42;;;15.80;99.90;;;;;;5076499;28;20093;-86
2023/08/17 05:04:30;;;;;;;4.63;1.60;;;15.80;99.90;;;;;;5077128;28;20128;-86
2023/08/17 05:06:57;;;;;;;6.90;1.70;;;15.80;99.90;;;;;;5093411;28;20047;-86
2023/08/17 05:09:24;;;;;;;4.13;1.40;;;15.80;99.90;;;;;;5093500;28;20040;-86
2023/08/17 05:11:51;;;;;;;10.48;1.73;;;15.80;99.90;;;;;;5060639;28;20075;-86
2023/08/17 05:14:18;;;;;;;5.22;1.63;;;15.80;99.90;;;;;;5060001;28;20131;-86
2023/08/17 05:16:44;;;;;;;7.75;1.90;;;15.80;99.90;;;;;;5061029;28;20043;-86
2023/08/17 05:19:11;;;;;;;7.30;1.65;;;15.80;99.90;;;;;;5059674;28;20083;-87
2023/08/17 05:21:38;;;;;;;4.90;1.55;;;15.70;99.90;;;;;;5076757;28;20404;-86
2023/08/17 05:24:05;;;;;;;3.22;1.60;;;15.80;99.90;;;;;;5060003;28;20042;-86
2023/08/17 05:26:32;;;;;;;6.78;1.50;;;15.80;99.90;;;;;;5076757;28;20135;-86
2023/08/17 05:28:58;;;;;;;5.38;1.67;;;15.70;99.90;;;;;;5076647;28;20133;-86
2023/08/17 05:31:25;;;;;;;7.03;1.58;;;15.70;99.90;;;;;;5076450;28;20087;-86
2023/08/17 05:33:52;;;;;;;10.00;1.73;;;15.80;99.90;;;;;;5076445;28;20043;-86
2023/08/17 05:36:19;;;;;;;4.72;1.60;;;15.80;99.90;;;;;;5092998;28;20126;-86
2023/08/17 05:38:45;;;;;;;7.88;1.63;;;15.80;99.90;;;;;;5060183;28;20039;-86
2023/08/17 05:41:12;;;;;;;5.97;1.73;;;15.80;99.90;;;;;;5059688;28;20074;-86
2023/08/17 05:43:39;;;;;;;5.85;1.52;;;15.80;99.90;;;;;;5076427;28;20036;-86
2023/08/17 05:46:05;;;;;;;8.48;1.92;;;15.80;99.90;;;;;;5059742;28;20043;-86
2023/08/17 05:48:32;;;;;;;8.77;1.80;;;15.80;99.90;;;;;;5059603;28;20468;-86
2023/08/17 05:50:59;;;;;;;8.32;1.95;;;15.70;99.90;;;;;;5076462;28;20040;-86
2023/08/17 05:53:26;;;;;;;6.20;1.83;;;15.80;99.90;;;;;;5059492;28;20059;-86
2023/08/17 05:55:52;;;;;;;5.55;1.60;;;15.80;99.90;;;;;;5060281;28;20043;-86
2023/08/17 05:58:19;;;;;;;4.43;1.60;;;15.90;99.90;;;;;;5076033;28;20040;-86
2023/08/17 06:00:46;;;;;;;4.00;1.33;;;15.90;99.90;;;;;;5076427;28;20144;-87
2023/08/17 06:03:13;;;;;;;4.72;1.40;;;16.00;99.90;;;;;;5076040;28;20067;-86
2023/08/17 06:05:40;;;;;;;5.13;1.50;;;16.00;99.90;;;;;;5076173;28;20036;-87
2023/08/17 06:08:07;;;;;;;8.00;1.70;;;16.00;99.90;;;;;;5092299;28;20047;-86
2023/08/17 06:10:33;;;;;;;6.18;1.60;;;16.10;99.90;;;;;;5092821;28;20404;-86
2023/08/17 06:13:00;;;;;;;5.00;1.48;;;16.20;99.90;;;;;;5059379;28;20040;-86
2023/08/17 06:15:27;;;;;;;5.55;1.40;;;16.30;99.90;;;;;;5075543;28;20051;-87
2023/08/17 06:17:54;;;;;;;5.53;1.35;;;16.30;99.90;;;;;;5076238;28;20047;-87
2023/08/17 06:20:21;;;;;;;5.60;1.30;;;16.40;99.90;;;;;;5076508;28;20435;-86
2023/08/17 06:22:49;;;;;;;5.05;1.35;;;16.50;99.90;;;;;;5092685;28;20408;-87
2023/08/17 06:25:16;;;;;;;9.05;1.80;;;16.50;99.90;;;;;;5092444;28;20051;-86
2023/08/17 06:27:45;;;;;;;4.57;1.42;;;16.50;99.90;;;;;;5059796;28;20040;-87
2023/08/17 06:30:13;;;;;;;6.75;1.50;;;16.50;99.90;;;;;;5080839;28;20047;-88
2023/08/17 06:32:39;;;;;;;5.40;1.27;;;16.50;99.90;;;;;;5093904;28;20084;-87
2023/08/17 06:35:07;;;;;;;3.92;1.33;;;16.30;99.90;;;;;;5076660;28;20445;-87
2023/08/17 06:37:33;;;;;;;5.95;1.60;;;16.60;99.90;;;;;;5075939;28;20078;-86
2023/08/17 06:40:00;;;;;;;3.88;1.30;;;16.60;99.90;;;;;;5059932;28;20048;-87
2023/08/17 06:42:27;;;;;;;6.40;1.40;;;16.60;99.90;;;;;;5055678;28;20080;-86
2023/08/17 06:44:54;;;;;;;3.92;1.50;;;16.60;99.90;;;;;;5072610;28;20045;-87
2023/08/17 06:47:21;;;;;;;6.55;1.40;;;16.60;99.90;;;;;;5073053;28;20098;-87
2023/08/17 06:49:48;;;;;;;5.00;1.48;;;16.60;99.90;;;;;;5076305;28;20506;-87
2023/08/17 06:52:14;;;;;;;5.13;1.25;;;16.60;99.90;;;;;;5059522;28;20385;-87
2023/08/17 06:54:41;;;;;;;4.18;1.20;;;16.60;99.90;;;;;;5078301;28;20041;-87
2023/08/17 06:57:08;;;;;;;5.32;1.35;;;16.40;99.90;;;;;;5092670;28;20090;-86
2023/08/17 06:59:35;;;;;;;3.65;1.20;;;16.70;99.90;;;;;;5075976;28;20048;-86
2023/08/17 07:02:01;;;;;;;4.55;1.02;;;16.70;99.90;;;;;;5075922;28;20040;-87
2023/08/17 07:04:28;;;;;;;4.15;1.30;;;16.70;99.90;;;;;;5058845;28;20043;-86
2023/08/17 07:06:55;;;;;;;4.80;1.48;;;16.70;99.90;;;;;;5092785;28;20044;-87
2023/08/17 07:09:22;;;;;;;3.95;1.40;;;16.80;99.90;;;;;;5059056;28;20040;-87
2023/08/17 07:11:48;;;;;;;4.25;1.20;;;16.80;99.90;;;;;;5092230;28;20555;-86
2023/08/17 07:14:15;;;;;;;9.77;1.30;;;16.80;99.90;;;;;;5075452;28;20043;-86
2023/08/17 07:16:42;;;;;;;4.40;1.00;;;16.90;99.90;;;;;;5059381;28;20044;-87
2023/08/17 07:19:08;;;;;;;5.25;1.20;;;16.90;99.90;;;;;;5075760;28;20044;-86
2023/08/17 07:21:35;;;;;;;2.70;1.02;;;16.90;99.90;;;;;;5058422;28;20151;-86
2023/08/17 07:24:15;;;;;;;4.38;1.10;;;17.00;99.90;;;;;;5075446;28;20121;-86
2023/08/17 07:26:42;;;;;;;4.57;1.20;;;17.00;99.90;;;;;;5092274;28;20489;-87
2023/08/17 07:29:09;;;;;;;2.78;1.23;;;17.20;99.90;;;;;;5092154;28;20044;-87
2023/08/17 07:31:37;;;;;;;5.07;1.08;;;17.20;99.90;;;;;;5091621;28;20052;-87
2023/08/17 07:34:05;;;;;;;4.32;1.10;;;17.30;99.90;;;;;;5059340;28;20137;-87
2023/08/17 07:36:32;;;;;;;4.13;1.50;;;17.40;99.90;;;;;;5091796;28;20066;-87
2023/08/17 07:38:59;;;;;;;5.95;1.20;;;17.30;99.90;;;;;;5091938;28;20131;-87
2023/08/17 07:41:26;;;;;;;3.92;1.27;;;17.30;99.90;;;;;;5074799;28;20147;-88
2023/08/17 07:43:53;;;;;;;4.60;1.10;;;17.20;99.90;;;;;;5058865;28;20459;-87
2023/08/17 07:46:20;;;;;;;6.93;1.20;;;17.20;99.90;;;;;;5058820;28;20034;-87
2023/08/17 07:48:47;;;;;;;5.90;1.17;;;17.00;99.90;;;;;;5058665;28;20037;-88
2023/08/17 07:51:13;;;;;;;3.10;0.90;;;17.20;99.90;;;;;;5075115;28;20044;-87
2023/08/17 07:53:40;;;;;;;2.25;0.98;;;17.20;99.90;;;;;;5074540;28;20076;-87
2023/08/17 07:56:07;;;;;;;5.50;1.08;;;17.20;99.90;;;;;;5058732;28;20037;-87
2023/08/17 07:58:33;;;;;;;2.38;0.88;;;17.20;99.90;;;;;;5074657;28;20079;-87
2023/08/17 08:01:00;;;;;;;3.95;1.30;;;17.20;99.90;;;;;;5074926;28;20082;-87
2023/08/17 08:03:27;;;;;;;2.83;1.10;;;17.20;99.90;;;;;;5057981;28;20036;-87
2023/08/17 08:05:54;;;;;;;2.92;1.17;;;17.20;99.90;;;;;;5058918;28;20047;-87
2023/08/17 08:08:20;;;;;;;5.28;1.20;;;17.20;99.90;;;;;;5074868;28;20477;-88
2023/08/17 08:10:47;;;;;;;4.70;0.98;;;17.20;99.90;;;;;;5058521;28;20108;-87
2023/08/17 08:13:14;;;;;;;3.80;0.90;;;17.30;99.90;;;;;;5074359;28;20443;-87
2023/08/17 08:15:40;;;;;;;4.32;1.20;;;17.30;99.90;;;;;;5057860;28;20047;-87
2023/08/17 08:18:07;;;;;;;3.10;1.08;;;17.30;99.90;;;;;;5091623;28;20507;-87
2023/08/17 08:20:34;;;;;;;4.60;1.02;;;17.40;99.90;;;;;;5058425;28;20043;-87
2023/08/17 08:23:00;;;;;;;3.38;1.00;;;17.40;99.90;;;;;;5074324;28;20174;-87
2023/08/17 08:25:27;;;;;;;4.20;1.00;;;17.50;99.90;;;;;;5090692;28;20401;-87
2023/08/17 08:27:54;;;;;;;3.83;1.13;;;17.50;99.90;;;;;;5090959;28;20072;-87
2023/08/17 08:30:21;;;;;;;3.63;1.10;;;17.60;99.90;;;;;;5074597;28;20771;-87
2023/08/17 08:32:48;;;;;;;7.28;1.10;;;17.80;99.90;;;;;;5057627;28;20046;-88
2023/08/17 08:35:15;;;;;;;3.83;1.02;;;17.90;99.90;;;;;;5090764;28;20036;-87
2023/08/17 08:37:41;;;;;;;3.08;1.00;;;18.00;99.90;;;;;;5073680;28;20051;-88
2023/08/17 08:40:13;;;;;;;3.33;1.00;;;18.20;99.90;;;;;;5074183;28;20493;-87
2023/08/17 08:42:40;;;;;;;2.67;0.95;;;18.20;99.90;;;;;;5090716;28;20045;-89
2023/08/17 08:45:07;;;;;;;5.15;0.95;;;18.30;99.90;;;;;;5074530;28;20048;-87
2023/08/17 08:47:36;;;;;;;1.88;0.90;;;18.30;99.90;;;;;;5073881;28;20408;-88
2023/08/17 08:50:04;;;;;;;3.83;1.00;;;18.30;99.90;;;;;;5074125;28;20513;-87
2023/08/17 08:52:59;;;;;;;4.47;1.17;;;18.40;99.90;;;;;;5073684;28;20853;-87
2023/08/17 08:55:38;;;;;;;2.35;0.82;;;18.20;99.90;;;;;;5099605;28;20475;-87
2023/08/17 08:58:07;;;;;;;2.13;0.88;;;18.20;99.90;;;;;;5090536;28;20040;-88
2023/08/17 09:00:34;;;;;;;3.30;1.20;;;18.10;99.90;;;;;;5073401;28;20075;-87
2023/08/17 09:03:04;;;;;;;4.93;1.00;;;18.10;99.90;;;;;;5057643;28;20115;-87
2023/08/17 09:05:34;;;;;;;6.45;1.38;;;18.10;99.90;;;;;;5090009;28;20119;-86
2023/08/17 09:08:02;;;;;;;4.28;1.10;;;18.10;99.90;;;;;;5074594;28;20123;-87
2023/08/17 09:10:29;;;;;;;5.05;1.00;;;18.10;99.90;;;;;;5090309;28;20045;-87
2023/08/17 09:12:55;;;;;;;5.78;1.25;;;18.20;99.90;;;;;;5057381;28;20044;-87
2023/08/17 09:15:22;;;;;;;5.95;1.33;;;18.40;99.90;;;;;;5057296;28;20523;-88
2023/08/17 09:17:50;;;;;;;2.95;1.17;;;18.40;99.90;;;;;;5057402;28;20089;-87
2023/08/17 09:20:46;;;;;;;6.68;1.15;;;18.50;99.90;;;;;;5073538;28;20048;-90
2023/08/17 09:23:17;;;;;;;;;;;18.40;99.90;;;;;;5090777;28;20131;-87
2023/08/17 09:25:47;;;;;;;3.90;1.00;;;18.50;99.90;;;;;;5089932;28;20018;-87
2023/08/17 09:28:16;;;;;;;4.07;1.20;;;18.60;99.90;;;;;;5090588;28;20037;-88
2023/08/17 09:30:53;;;;;;;3.00;1.20;;;18.70;99.90;;;;;;5090244;28;20044;-87
2023/08/17 09:33:29;;;;;;;4.57;1.15;;;18.80;99.90;;;;;;5090367;28;20504;-88
2023/08/17 09:35:58;;;;;;;3.38;1.30;;;18.80;99.90;;;;;;5090643;28;20506;-87
2023/08/17 09:38:25;;;;;;;3.95;1.13;;;18.90;99.90;;;;;;5073971;28;20056;-87
2023/08/17 09:40:52;;;;;;;2.85;1.05;;;19.00;99.90;;;;;;5075160;28;20040;-87
2023/08/17 09:43:24;;;;;;;3.83;1.10;;;19.10;99.90;;;;;;5076942;28;20044;-87
2023/08/17 09:45:51;;;;;;;3.97;1.00;;;19.10;99.90;;;;;;5092882;28;20035;-87
2023/08/17 09:48:19;;;;;;;4.60;1.30;;;19.20;99.90;;;;;;5093503;28;20044;-88
2023/08/17 09:50:47;;;;;;;2.75;1.05;;;19.30;99.90;;;;;;5076682;28;20207;-88
2023/08/17 09:53:18;;;;;;;4.82;1.25;;;19.30;99.90;;;;;;5077157;28;20087;-87
2023/08/17 09:55:46;;;;;;;6.25;1.40;;;19.40;99.90;;;;;;5076559;28;20170;-87
2023/08/17 09:58:16;;;;;;;3.80;1.20;;;19.50;99.90;;;;;;5093155;28;20040;-88
2023/08/17 10:00:49;;;;;;;3.70;1.25;;;19.70;99.90;;;;;;5077192;28;20040;-87
2023/08/17 10:03:17;;;;;;;3.90;1.30;;;19.90;99.90;;;;;;5093562;28;20040;-87
2023/08/17 10:05:50;;;;;;;5.97;1.30;;;20.00;99.90;;;;;;5092871;28;20510;-87
2023/08/17 10:08:20;;;;;;;4.28;1.40;;;20.10;99.90;;;;;;5093076;28;20478;-87
2023/08/17 10:10:47;;;;;;;5.60;1.30;;;20.20;99.90;;;;;;5092979;28;20108;-87
2023/08/17 10:13:17;;;;;;;4.57;1.60;;;20.30;99.90;;;;;;5076880;28;20101;-88
2023/08/17 10:16:01;;;;;;;3.15;1.10;;;20.30;99.90;;;;;;5092804;28;20404;-87
2023/08/17 10:18:37;;;;;;;3.60;1.55;;;20.20;99.90;;;;;;5093341;28;20040;-88
2023/08/17 10:21:22;;;;;;;3.55;1.10;;;20.00;99.90;;;;;;5109645;28;20039;-87
2023/08/17 10:23:50;;;;;;;2.90;1.20;;;20.00;99.90;;;;;;5095532;28;20137;-87
2023/08/17 10:26:17;;;;;;;4.68;1.55;;;20.00;99.90;;;;;;5064630;28;20492;-88
2023/08/17 10:28:45;;;;;;;5.00;1.30;;;19.90;99.90;;;;;;5096975;28;20395;-89
2023/08/17 10:31:13;;;;;;;6.25;1.38;;;19.90;99.90;;;;;;5063701;28;20131;-87
2023/08/17 10:33:43;;;;;;;4.82;1.25;;;20.00;99.90;;;;;;5080784;28;20040;-87
2023/08/17 10:36:12;;;;;;;2.83;1.20;;;20.30;99.90;;;;;;5080985;28;20101;-87
2023/08/17 10:38:38;;;;;;;5.80;1.45;;;20.40;99.90;;;;;;5097326;28;20036;-88
2023/08/17 10:41:10;;;;;;;4.78;1.30;;;20.30;99.90;;;;;;5077547;28;20107;-88
2023/08/17 10:43:59;;;;;;;4.18;1.50;;;20.30;99.90;;;;;;5097031;28;20036;-88
2023/08/17 10:46:36;;;;;;;6.07;1.67;;;20.30;99.90;;;;;;5080087;28;20519;-87
2023/08/17 10:49:05;;;;;;;2.47;1.30;;;20.20;99.90;;;;;;5096255;28;20089;-87
2023/08/17 10:51:33;;;;;;;3.55;1.30;;;20.30;99.90;;;;;;5096445;28;20109;-87
2023/08/17 10:54:04;;;;;;;6.22;1.52;;;20.30;99.90;;;;;;5079519;28;20043;-87
2023/08/17 10:56:30;;;;;;;4.55;1.15;;;20.30;99.90;;;;;;5096461;28;20039;-87
2023/08/17 10:59:01;;;;;;;4.20;1.30;;;20.40;99.90;;;;;;5062908;28;20048;-87
2023/08/17 11:01:33;;;;;;;3.72;1.30;;;20.40;99.90;;;;;;5079624;28;20089;-88
2023/08/17 11:04:11;;;;;;;3.45;1.20;;;20.40;99.90;;;;;;5096118;28;20058;-87
2023/08/17 11:06:37;;;;;;;4.60;1.35;;;20.30;99.90;;;;;;5079951;28;20044;-87
2023/08/17 11:09:08;;;;;;;6.53;1.98;;;20.30;99.90;;;;;;5079493;28;20503;-88
2023/08/17 11:11:35;;;;;;;5.07;1.48;;;20.30;99.90;;;;;;5079821;28;20122;-88
2023/08/17 11:14:02;;;;;;;3.67;1.52;;;20.30;99.90;;;;;;5095973;28;20094;-87
2023/08/17 11:16:29;;;;;;;4.70;1.42;;;20.10;99.90;;;;;;5096336;28;20055;-87
2023/08/17 11:18:58;;;;;;;2.70;1.15;;;20.10;99.90;;;;;;5079213;28;20082;-87
2023/08/17 11:21:25;;;;;;;5.35;1.50;;;20.20;99.90;;;;;;5079684;28;20067;-88
2023/08/17 11:23:55;;;;;;;4.07;1.20;;;20.20;99.90;;;;;;5095968;28;20040;-88
2023/08/17 11:26:22;;;;;;;3.88;1.40;;;20.40;99.90;;;;;;5096199;28;20131;-88
2023/08/17 11:28:49;;;;;;;4.28;1.58;;;20.50;99.90;;;;;;5062673;28;20040;-87
2023/08/17 11:31:16;;;;;;;3.90;1.27;;;20.50;99.90;;;;;;5095691;28;20047;-87
2023/08/17 11:33:44;;;;;;;3.95;1.75;;;20.60;99.90;;;;;;5094977;28;20047;-87
2023/08/17 11:36:11;;;;;;;2.60;1.20;;;20.60;99.90;;;;;;5095119;28;20043;-87
2023/08/17 11:38:41;;;;;;;4.75;1.50;;;20.60;99.90;;;;;;5095588;28;20047;-87
2023/08/17 11:41:08;;;;;;;4.80;1.40;;;20.70;99.90;;;;;;5095142;28;20434;-87
2023/08/17 11:43:36;;;;;;;3.92;1.30;;;20.90;99.90;;;;;;5095169;28;20449;-88
2023/08/17 11:46:03;;;;;;;3.67;1.48;;;21.00;99.90;;;;;;5095218;28;20040;-87
2023/08/17 11:48:30;;;;;;;4.03;1.50;;;21.30;99.90;;;;;;5079226;28;20122;-87
2023/08/17 11:50:57;;;;;;;4.43;1.50;;;21.50;99.90;;;;;;5078061;28;20048;-88
2023/08/17 11:53:24;;;;;;;3.65;1.45;;;21.50;99.90;;;;;;5062653;28;20062;-87
2023/08/17 11:55:51;;;;;;;4.03;1.63;;;21.50;99.90;;;;;;5094926;28;20087;-88
2023/08/17 11:58:18;;;;;;;4.55;1.80;;;21.60;99.90;;;;;;5079048;28;20063;-90
2023/08/17 12:00:45;;;;;;;3.50;1.50;;;21.60;99.90;;;;;;5078254;28;20046;-87
2023/08/17 12:03:16;;;;;;;5.75;1.60;;;21.60;99.90;;;;;;5078033;28;20407;-88
2023/08/17 12:05:45;;;;;;;4.93;1.50;;;21.60;99.90;;;;;;5095057;28;20050;-87
2023/08/17 12:08:14;;;;;;;3.15;1.42;;;21.50;99.90;;;;;;5095512;28;20507;-87
2023/08/17 12:10:41;;;;;;;5.40;1.67;;;21.50;99.90;;;;;;5095395;28;20066;-87
2023/08/17 12:13:12;;;;;;;3.25;1.50;;;21.40;99.90;;;;;;5077939;28;20040;-88
2023/08/17 12:15:40;;;;;;;4.85;1.65;;;21.40;99.90;;;;;;5094436;28;20044;-88
2023/08/17 12:18:06;;;;;;;4.03;1.38;;;21.30;99.90;;;;;;5078127;28;20048;-87
2023/08/17 12:20:36;;;;;;;3.22;1.50;;;21.30;99.90;;;;;;5094680;28;20058;-88
2023/08/17 12:23:03;;;;;;;4.78;1.50;;;21.30;99.90;;;;;;5062240;28;20043;-87
2023/08/17 12:25:30;;;;;;;3.45;1.58;;;21.30;99.90;;;;;;5061493;28;20412;-88
2023/08/17 12:28:01;;;;;;;4.38;1.80;;;21.30;99.90;;;;;;5061104;28;20036;-86
2023/08/17 12:30:36;;;;;;;5.65;1.70;;;21.40;99.90;;;;;;5062063;28;20070;-87
2023/08/17 12:33:02;;;;;;;4.45;1.70;;;21.40;99.90;;;;;;5094417;28;20385;-87
2023/08/17 12:35:31;;;;;;;3.58;1.50;;;21.30;99.90;;;;;;5077960;28;20047;-88
2023/08/17 12:37:58;;;;;;;5.28;1.98;;;21.30;99.90;;;;;;5094604;28;20046;-87
2023/08/17 12:40:25;;;;;;;6.88;1.90;;;21.20;99.90;;;;;;5077605;28;20118;-88
2023/08/17 12:42:52;;;;;;;3.75;1.77;;;21.00;99.90;;;;;;5077677;28;20091;-87
2023/08/17 12:45:18;;;;;;;7.03;1.88;;;20.90;99.90;;;;;;5077101;28;20052;-88
2023/08/17 12:47:45;;;;;;;4.75;1.95;;;20.80;99.90;;;;;;5078049;28;20040;-88
2023/08/17 12:50:12;;;;;;;4.38;1.67;;;20.70;99.90;;;;;;5094521;28;20044;-87
2023/08/17 12:52:38;;;;;;;4.40;1.77;;;20.70;99.90;;;;;;5094171;28;20040;-88